Time;durP1;ratioP1;P1;durP2;ratioP2;P2;SDS_P1;SDS_P2;PMS_P1;PMS_P2;Temp;Humidity;BMP_temperature;BMP_pressure;BME280_temperature;BME280_humidity;BME280_pressure;Samples;Min_cycle;Max_cycle;Signal;HPM_P1;HPM_P2
2023/02/17 00:02:09;;;;;;;35.43;9.13;;;9.50;99.90;;;;;;4915429;29;20654;-78
2023/02/17 00:04:36;;;;;;;38.37;10.57;;;9.50;99.90;;;;;;4915068;29;20293;-79
2023/02/17 00:07:02;;;;;;;37.00;10.63;;;9.50;99.90;;;;;;4915471;29;20317;-79
2023/02/17 00:09:29;;;;;;;45.60;11.20;;;9.50;99.90;;;;;;4915538;29;20313;-79
2023/02/17 00:11:56;;;;;;;43.53;11.00;;;9.50;99.90;;;;;;4918024;29;20210;-77
2023/02/17 00:14:24;;;;;;;28.80;10.33;;;9.50;99.90;;;;;;4919474;29;20205;-80
2023/02/17 00:16:51;;;;;;;35.10;10.20;;;9.50;99.90;;;;;;4919218;29;20210;-79
2023/02/17 00:19:24;;;;;;;33.63;11.93;;;9.50;99.90;;;;;;4918782;29;20334;-79
2023/02/17 00:21:53;;;;;;;39.17;12.37;;;9.40;99.90;;;;;;4919213;29;20203;-80
2023/02/17 00:24:20;;;;;;;45.27;13.10;;;9.40;99.90;;;;;;4918517;29;20205;-78
2023/02/17 00:26:47;;;;;;;40.40;12.37;;;9.40;99.90;;;;;;4918470;29;20313;-78
2023/02/17 00:29:14;;;;;;;39.80;13.77;;;9.50;99.90;;;;;;4918729;29;20217;-78
2023/02/17 00:31:43;;;;;;;38.77;14.83;;;9.50;99.90;;;;;;4919049;29;20509;-77
2023/02/17 00:34:10;;;;;;;46.00;15.00;;;9.50;99.90;;;;;;4918297;29;20573;-79
2023/02/17 00:36:37;;;;;;;45.37;15.57;;;9.50;99.90;;;;;;4918300;29;20213;-77
2023/02/17 00:39:04;;;;;;;43.57;15.07;;;9.50;99.90;;;;;;4917504;29;20289;-77
2023/02/17 00:41:32;;;;;;;45.27;16.80;;;9.50;99.90;;;;;;4919000;29;20297;-77
2023/02/17 00:43:59;;;;;;;46.50;17.70;;;9.50;99.90;;;;;;4918769;29;20604;-78
2023/02/17 00:46:27;;;;;;;55.07;20.00;;;9.50;99.90;;;;;;4918023;29;20233;-78
2023/02/17 00:48:55;;;;;;;45.63;19.20;;;9.50;99.90;;;;;;4918782;29;20233;-78
2023/02/17 00:51:23;;;;;;;50.57;19.63;;;9.50;99.90;;;;;;4918233;29;20249;-78
2023/02/17 00:53:50;;;;;;;52.30;18.90;;;9.50;99.90;;;;;;4917772;29;20620;-79
2023/02/17 00:56:17;;;;;;;45.73;19.70;;;9.50;99.90;;;;;;4918367;29;20253;-78
2023/02/17 00:58:45;;;;;;;48.20;20.57;;;9.50;99.90;;;;;;4918730;29;20556;-78
2023/02/17 01:01:12;;;;;;;47.10;20.80;;;9.50;99.90;;;;;;4917442;29;20238;-79
2023/02/17 01:03:40;;;;;;;54.03;22.60;;;9.40;99.90;;;;;;4918890;29;20228;-76
2023/02/17 01:06:13;;;;;;;50.47;23.97;;;9.50;99.90;;;;;;4918752;29;20257;-76
2023/02/17 01:08:39;;;;;;;46.83;21.83;;;9.40;99.90;;;;;;4917324;29;20838;-78
2023/02/17 01:11:06;;;;;;;59.83;23.10;;;9.50;99.90;;;;;;4918210;29;20283;-78
2023/02/17 01:13:33;;;;;;;49.27;23.10;;;9.40;99.90;;;;;;4918149;29;20241;-79
2023/02/17 01:16:00;;;;;;;52.83;24.30;;;9.40;99.90;;;;;;4917815;29;20297;-78
2023/02/17 01:18:27;;;;;;;47.20;23.00;;;9.40;99.90;;;;;;4917760;29;20221;-77
2023/02/17 01:20:54;;;;;;;48.33;23.60;;;9.40;99.90;;;;;;4917810;29;20623;-79
2023/02/17 01:23:22;;;;;;;46.87;22.40;;;9.50;99.90;;;;;;4917205;29;20522;-79
2023/02/17 01:25:50;;;;;;;43.50;22.37;;;9.40;99.90;;;;;;4917922;29;20505;-79
2023/02/17 01:28:19;;;;;;;45.07;22.87;;;9.40;99.90;;;;;;4916881;29;20318;-78
2023/02/17 01:30:46;;;;;;;58.07;25.70;;;9.40;99.90;;;;;;4917597;29;20207;-79
2023/02/17 01:33:13;;;;;;;50.70;25.80;;;9.40;99.90;;;;;;4917750;29;20286;-78
2023/02/17 01:35:40;;;;;;;56.93;24.37;;;9.40;99.90;;;;;;4917357;29;20311;-78
2023/02/17 01:38:07;;;;;;;48.70;23.93;;;9.40;99.90;;;;;;4917969;29;20238;-78
2023/02/17 01:40:36;;;;;;;58.63;26.17;;;9.40;99.90;;;;;;4917456;29;20226;-78
2023/02/17 01:43:03;;;;;;;45.70;23.90;;;9.40;99.90;;;;;;4916814;29;20199;-78
2023/02/17 01:45:37;;;;;;;49.50;24.37;;;9.40;99.90;;;;;;4917726;29;20203;-78
2023/02/17 01:48:10;;;;;;;48.27;23.70;;;9.30;99.90;;;;;;4917539;29;20237;-77
2023/02/17 01:50:41;;;;;;;51.80;24.93;;;9.30;99.90;;;;;;4917146;29;20245;-76
2023/02/17 01:53:11;;;;;;;49.23;23.70;;;9.30;99.90;;;;;;4917761;29;20242;-78
2023/02/17 01:55:40;;;;;;;46.77;23.87;;;9.30;99.90;;;;;;4917420;29;20858;-77
2023/02/17 01:58:11;;;;;;;49.20;24.23;;;9.30;99.90;;;;;;4916961;29;20213;-78
2023/02/17 02:00:39;;;;;;;58.00;27.47;;;9.30;99.90;;;;;;4916922;29;20709;-78
2023/02/17 02:03:09;;;;;;;54.40;26.03;;;9.30;99.90;;;;;;4917420;29;20205;-77
2023/02/17 02:05:37;;;;;;;54.33;27.67;;;9.30;99.90;;;;;;4916854;29;20191;-77
2023/02/17 02:08:05;;;;;;;71.20;27.50;;;9.30;99.90;;;;;;4916789;29;20833;-78
2023/02/17 02:10:32;;;;;;;56.63;26.73;;;9.30;99.90;;;;;;4916418;29;20199;-77
2023/02/17 02:13:00;;;;;;;54.03;24.93;;;9.30;99.90;;;;;;4917013;29;20211;-76
2023/02/17 02:15:35;;;;;;;53.77;23.53;;;9.20;99.90;;;;;;4917000;29;20259;-76
2023/02/17 02:18:12;;;;;;;51.00;22.27;;;9.30;99.90;;;;;;4915992;29;20568;-76
2023/02/17 02:21:18;;;;;;;46.53;21.03;;;9.20;99.90;;;;;;4917233;29;20224;-77
2023/02/17 02:24:20;;;;;;;53.20;21.93;;;9.20;99.90;;;;;;4916681;29;20210;-77
2023/02/17 02:27:24;;;;;;;47.27;21.47;;;9.20;99.90;;;;;;4922549;29;20245;-77
2023/02/17 02:30:11;;;;;;;42.17;20.17;;;9.20;99.90;;;;;;4916939;29;20207;-77
2023/02/17 02:33:04;;;;;;;48.03;20.70;;;9.20;99.90;;;;;;4916207;29;20194;-76
2023/02/17 02:35:40;;;;;;;47.37;20.80;;;9.20;99.90;;;;;;4916956;29;20230;-76
2023/02/17 02:38:12;;;;;;;47.70;19.30;;;9.20;99.90;;;;;;4916877;29;20298;-76
2023/02/17 02:40:44;;;;;;;49.17;20.87;;;9.20;99.90;;;;;;4916254;29;20228;-77
2023/02/17 02:43:12;;;;;;;41.37;20.03;;;9.20;99.90;;;;;;4916764;29;20289;-76
2023/02/17 02:45:39;;;;;;;52.90;19.40;;;9.20;99.90;;;;;;4915741;29;20210;-76
2023/02/17 02:48:07;;;;;;;45.10;19.57;;;9.20;99.90;;;;;;4925333;29;20602;-76
2023/02/17 02:50:52;;;;;;;47.23;19.00;;;9.10;99.90;;;;;;4935471;29;20204;-76
2023/02/17 02:53:39;;;;;;;39.57;18.60;;;9.10;99.90;;;;;;4924150;29;20558;-76
2023/02/17 02:56:13;;;;;;;40.63;18.50;;;9.10;99.90;;;;;;4916561;29;20201;-76
2023/02/17 02:58:49;;;;;;;42.10;19.17;;;9.20;99.90;;;;;;4915977;29;20205;-76
2023/02/17 03:01:25;;;;;;;44.20;19.97;;;9.10;99.90;;;;;;4915739;29;20777;-77
2023/02/17 03:04:04;;;;;;;46.33;19.73;;;9.10;99.90;;;;;;4916138;29;20317;-77
2023/02/17 03:06:41;;;;;;;35.13;18.10;;;9.10;99.90;;;;;;4915576;29;20265;-77
2023/02/17 03:09:11;;;;;;;43.07;17.83;;;9.10;99.90;;;;;;4916474;29;20286;-78
2023/02/17 03:11:40;;;;;;;45.00;17.60;;;9.10;99.90;;;;;;4915842;29;20274;-78
2023/02/17 03:14:09;;;;;;;40.67;16.50;;;9.10;99.90;;;;;;4915546;29;20214;-78
2023/02/17 03:16:38;;;;;;;33.83;16.50;;;9.10;99.90;;;;;;4916004;29;20194;-77
2023/02/17 03:19:07;;;;;;;39.03;17.90;;;9.00;99.90;;;;;;4916052;29;20678;-77
2023/02/17 03:21:38;;;;;;;44.03;16.67;;;9.10;99.90;;;;;;4915524;29;20230;-77
2023/02/17 03:24:06;;;;;;;41.57;17.20;;;9.10;99.90;;;;;;4916032;29;20672;-79
2023/02/17 03:26:33;;;;;;;39.67;17.60;;;9.10;99.90;;;;;;4915710;29;20209;-78
2023/02/17 03:29:00;;;;;;;46.17;17.37;;;9.10;99.90;;;;;;4915345;29;20726;-78
2023/02/17 03:31:27;;;;;;;40.93;17.57;;;9.10;99.90;;;;;;4916173;29;20194;-79
2023/02/17 03:33:54;;;;;;;45.13;18.83;;;9.10;99.90;;;;;;4915888;29;20742;-78
2023/02/17 03:36:22;;;;;;;45.07;18.00;;;9.10;99.90;;;;;;4915106;29;20207;-78
2023/02/17 03:38:49;;;;;;;51.87;19.33;;;9.10;99.90;;;;;;4916203;29;20293;-79
2023/02/17 03:41:16;;;;;;;51.87;19.10;;;9.20;99.90;;;;;;4915349;29;20321;-78
2023/02/17 03:43:43;;;;;;;60.77;21.40;;;9.10;99.90;;;;;;4914875;29;20246;-76
2023/02/17 03:46:12;;;;;;;46.43;19.70;;;9.20;99.90;;;;;;4915776;29;20298;-77
2023/02/17 03:48:39;;;;;;;52.80;21.23;;;9.20;99.90;;;;;;4915701;29;20206;-77
2023/02/17 03:51:13;;;;;;;58.03;20.70;;;9.10;99.90;;;;;;4918103;29;20720;-77
2023/02/17 03:53:43;;;;;;;46.37;19.63;;;9.10;99.90;;;;;;4915646;29;20194;-77
2023/02/17 03:56:11;;;;;;;67.37;22.53;;;9.10;99.90;;;;;;4914904;29;20294;-76
2023/02/17 03:58:38;;;;;;;48.43;21.87;;;9.10;99.90;;;;;;4916812;29;20207;-77
2023/02/17 04:01:06;;;;;;;46.83;20.30;;;9.20;99.90;;;;;;4915240;29;20226;-76
2023/02/17 04:03:33;;;;;;;43.13;18.73;;;9.20;99.90;;;;;;4914732;29;20199;-78
2023/02/17 04:06:00;;;;;;;56.33;19.73;;;9.20;99.90;;;;;;4915230;29;20357;-77
2023/02/17 04:08:28;;;;;;;46.43;19.90;;;9.20;99.90;;;;;;4915270;29;20596;-77
2023/02/17 04:10:58;;;;;;;48.33;19.50;;;9.20;99.90;;;;;;4915291;29;20222;-76
2023/02/17 04:13:25;;;;;;;46.40;17.93;;;9.20;99.90;;;;;;4915593;29;20205;-76
2023/02/17 04:15:53;;;;;;;57.27;19.53;;;9.20;99.90;;;;;;4915362;29;20215;-76
2023/02/17 04:18:20;;;;;;;53.60;18.70;;;9.20;99.90;;;;;;4914923;29;20222;-76
2023/02/17 04:20:49;;;;;;;53.33;18.07;;;9.20;99.90;;;;;;4915413;29;20650;-76
2023/02/17 04:23:16;;;;;;;50.07;19.27;;;9.20;99.90;;;;;;4915044;29;20633;-76
2023/02/17 04:25:43;;;;;;;44.37;16.53;;;9.20;99.90;;;;;;4914963;29;20209;-78
2023/02/17 04:28:12;;;;;;;56.10;17.37;;;9.20;99.90;;;;;;4915347;29;20290;-77
2023/02/17 04:30:39;;;;;;;47.27;17.97;;;9.20;99.90;;;;;;4915623;29;20282;-76
2023/02/17 04:33:06;;;;;;;49.73;17.73;;;9.20;99.90;;;;;;4914630;29;20215;-77
2023/02/17 04:35:33;;;;;;;48.97;17.00;;;9.20;99.90;;;;;;4914802;29;20211;-76
2023/02/17 04:38:00;;;;;;;45.47;17.17;;;9.20;99.90;;;;;;4914629;29;20630;-77
2023/02/17 04:40:27;;;;;;;60.53;18.47;;;9.20;99.90;;;;;;4915035;29;20595;-77
2023/02/17 04:42:53;;;;;;;39.47;14.70;;;9.30;99.90;;;;;;4915331;29;20234;-77
2023/02/17 04:45:23;;;;;;;53.70;14.00;;;9.30;99.90;;;;;;4914840;29;20207;-77
2023/02/17 04:47:50;;;;;;;63.50;17.20;;;9.30;99.90;;;;;;4914873;29;20564;-76
2023/02/17 04:50:17;;;;;;;46.40;14.33;;;9.30;99.90;;;;;;4915136;29;20282;-78
2023/02/17 04:52:44;;;;;;;54.37;13.40;;;9.30;99.90;;;;;;4914549;29;20596;-77
2023/02/17 04:55:11;;;;;;;60.93;15.17;;;9.30;99.90;;;;;;4915016;29;20663;-77
2023/02/17 04:57:38;;;;;;;64.47;14.87;;;9.40;99.90;;;;;;4916901;29;20238;-76
2023/02/17 05:00:06;;;;;;;58.53;14.80;;;9.40;99.90;;;;;;4917866;29;20241;-76
2023/02/17 05:02:34;;;;;;;55.80;13.03;;;9.40;99.90;;;;;;4918589;29;20223;-76
2023/02/17 05:05:01;;;;;;;53.77;14.00;;;9.40;99.90;;;;;;4918587;29;20213;-76
2023/02/17 05:07:28;;;;;;;56.53;13.90;;;9.30;99.90;;;;;;4917294;29;20242;-76
2023/02/17 05:09:55;;;;;;;59.13;14.73;;;9.40;99.90;;;;;;4918568;29;20290;-76
2023/02/17 05:12:22;;;;;;;48.67;16.37;;;9.40;99.90;;;;;;4918090;29;20311;-76
2023/02/17 05:14:49;;;;;;;56.30;17.13;;;9.40;99.90;;;;;;4917135;29;20302;-77
2023/02/17 05:17:15;;;;;;;61.27;15.83;;;9.40;99.90;;;;;;4918155;29;20652;-76
2023/02/17 05:19:44;;;;;;;64.83;16.43;;;9.40;99.90;;;;;;4918159;29;20205;-75
2023/02/17 05:22:10;;;;;;;56.23;15.33;;;9.40;99.90;;;;;;4917631;29;20233;-77
2023/02/17 05:24:37;;;;;;;59.57;16.97;;;9.40;99.90;;;;;;4918241;29;20213;-76
2023/02/17 05:27:04;;;;;;;55.73;16.53;;;9.40;99.90;;;;;;4917998;29;20206;-75
2023/02/17 05:29:31;;;;;;;62.10;17.73;;;9.40;99.90;;;;;;4917256;29;20297;-77
2023/02/17 05:31:58;;;;;;;55.13;15.73;;;9.50;99.90;;;;;;4918166;29;20225;-77
2023/02/17 05:34:25;;;;;;;62.43;17.33;;;9.50;99.90;;;;;;4917486;29;20202;-77
2023/02/17 05:36:53;;;;;;;72.57;18.77;;;9.50;99.90;;;;;;4917652;29;20294;-77
2023/02/17 05:39:20;;;;;;;64.00;16.97;;;9.50;99.90;;;;;;4917713;29;20289;-79
2023/02/17 05:41:47;;;;;;;70.97;19.00;;;9.50;99.90;;;;;;4916909;29;20223;-77
2023/02/17 05:44:13;;;;;;;52.73;16.93;;;9.50;99.90;;;;;;4917299;29;20219;-78
2023/02/17 05:46:40;;;;;;;65.37;17.47;;;9.60;99.90;;;;;;4917829;29;20207;-76
2023/02/17 05:49:07;;;;;;;55.13;15.83;;;9.60;99.90;;;;;;4917063;29;20205;-78
2023/02/17 05:51:35;;;;;;;71.10;18.73;;;9.50;99.90;;;;;;4917322;29;20215;-77
2023/02/17 05:54:04;;;;;;;64.90;18.87;;;9.50;99.90;;;;;;4917779;29;20202;-77
2023/02/17 05:56:31;;;;;;;58.07;17.50;;;9.50;99.90;;;;;;4916824;29;20611;-77
2023/02/17 05:58:59;;;;;;;53.00;18.07;;;9.60;99.90;;;;;;4917524;29;20199;-76
2023/02/17 06:01:26;;;;;;;60.40;18.43;;;9.60;99.90;;;;;;4916971;29;20219;-77
2023/02/17 06:03:53;;;;;;;63.13;20.40;;;9.60;99.90;;;;;;4917114;29;20285;-77
2023/02/17 06:06:20;;;;;;;62.30;18.40;;;9.70;99.90;;;;;;4916958;29;20669;-78
2023/02/17 06:08:47;;;;;;;56.57;18.87;;;9.70;99.90;;;;;;4916313;29;20297;-79
2023/02/17 06:11:15;;;;;;;61.83;20.30;;;9.70;99.90;;;;;;4916819;29;20553;-78
2023/02/17 06:13:42;;;;;;;68.13;19.07;;;9.70;99.90;;;;;;4916751;29;20297;-78
2023/02/17 06:16:09;;;;;;;60.47;19.60;;;9.70;99.90;;;;;;4916677;29;20202;-78
2023/02/17 06:18:35;;;;;;;69.83;20.77;;;9.70;99.90;;;;;;4916516;29;20219;-78
2023/02/17 06:21:02;;;;;;;53.67;18.80;;;9.70;99.90;;;;;;4917023;29;20618;-77
2023/02/17 06:23:29;;;;;;;60.13;20.50;;;9.70;99.90;;;;;;4916497;29;20236;-77
2023/02/17 06:25:56;;;;;;;71.87;21.50;;;9.70;99.90;;;;;;4916606;29;20210;-78
2023/02/17 06:28:24;;;;;;;70.77;22.33;;;9.70;99.90;;;;;;4916537;29;20199;-77
2023/02/17 06:30:51;;;;;;;66.97;21.20;;;9.70;99.90;;;;;;4916510;29;20245;-77
2023/02/17 06:33:18;;;;;;;67.93;21.10;;;9.70;99.90;;;;;;4916761;29;20324;-77
2023/02/17 06:35:48;;;;;;;66.70;23.47;;;9.80;99.90;;;;;;4916440;29;20313;-77
2023/02/17 06:38:15;;;;;;;55.53;22.67;;;9.80;99.90;;;;;;4916002;29;20199;-77
2023/02/17 06:40:42;;;;;;;65.90;23.03;;;9.80;99.90;;;;;;4934833;29;20222;-77
2023/02/17 06:43:09;;;;;;;64.30;24.90;;;9.80;99.90;;;;;;4935739;29;20226;-76
2023/02/17 06:45:37;;;;;;;65.70;22.97;;;9.80;99.90;;;;;;4933143;29;20298;-77
2023/02/17 06:48:04;;;;;;;64.03;22.07;;;9.80;99.90;;;;;;4916295;29;20863;-77
2023/02/17 06:50:31;;;;;;;55.23;21.20;;;9.80;99.90;;;;;;4916361;29;20209;-77
2023/02/17 06:52:58;;;;;;;54.07;21.23;;;9.80;99.90;;;;;;4915529;29;20199;-77
2023/02/17 06:55:25;;;;;;;63.03;22.77;;;9.80;99.90;;;;;;4916016;29;20298;-77
2023/02/17 06:57:52;;;;;;;48.57;20.10;;;9.70;99.90;;;;;;4916413;29;20294;-77
2023/02/17 07:00:20;;;;;;;57.87;20.87;;;9.70;99.90;;;;;;4915118;29;20627;-78
2023/02/17 07:02:48;;;;;;;50.87;20.30;;;9.70;99.90;;;;;;4916028;29;20222;-77
2023/02/17 07:05:16;;;;;;;54.33;19.87;;;9.70;99.90;;;;;;4916456;29;20203;-78
2023/02/17 07:07:43;;;;;;;57.13;21.13;;;9.70;99.90;;;;;;4915069;29;20249;-77
2023/02/17 07:10:10;;;;;;;55.00;22.03;;;9.70;99.90;;;;;;4916035;29;20655;-77
2023/02/17 07:12:37;;;;;;;61.07;20.90;;;9.70;99.90;;;;;;4915918;29;20297;-77
2023/02/17 07:15:05;;;;;;;51.53;19.47;;;9.70;99.90;;;;;;4916219;29;20238;-78
2023/02/17 07:17:31;;;;;;;49.43;19.43;;;9.80;99.90;;;;;;4916099;29;20289;-78
2023/02/17 07:20:00;;;;;;;60.73;18.57;;;9.80;99.90;;;;;;4914957;29;20256;-77
2023/02/17 07:22:26;;;;;;;41.03;16.23;;;9.80;99.90;;;;;;4915890;29;20313;-77
2023/02/17 07:24:53;;;;;;;60.97;18.80;;;9.70;99.90;;;;;;4916440;29;20212;-78
2023/02/17 07:27:20;;;;;;;41.07;17.47;;;9.80;99.90;;;;;;4914999;29;20286;-77
2023/02/17 07:29:47;;;;;;;49.20;19.37;;;9.80;99.90;;;;;;4916061;29;20205;-77
2023/02/17 07:32:14;;;;;;;42.97;17.70;;;9.80;99.90;;;;;;4915419;29;20687;-77
2023/02/17 07:34:41;;;;;;;53.47;20.20;;;9.80;99.90;;;;;;4915377;29;20289;-76
2023/02/17 07:37:09;;;;;;;57.73;19.87;;;9.90;99.90;;;;;;4916123;29;20596;-79
2023/02/17 07:39:36;;;;;;;45.53;19.67;;;9.90;99.90;;;;;;4915945;29;20210;-77
2023/02/17 07:42:05;;;;;;;49.50;20.57;;;9.90;99.90;;;;;;4915328;29;20309;-77
2023/02/17 07:44:32;;;;;;;59.33;21.33;;;9.90;99.90;;;;;;4915284;29;20214;-77
2023/02/17 07:46:59;;;;;;;43.83;18.80;;;9.90;99.90;;;;;;4932197;29;20276;-77
2023/02/17 07:49:26;;;;;;;46.13;18.23;;;9.90;99.90;;;;;;4933994;29;20208;-76
2023/02/17 07:51:52;;;;;;;54.47;21.07;;;9.90;99.90;;;;;;4931882;29;20288;-77
2023/02/17 07:54:21;;;;;;;42.17;18.73;;;9.90;99.90;;;;;;4916071;29;20508;-77
2023/02/17 07:56:47;;;;;;;46.50;19.83;;;9.90;99.90;;;;;;4915177;29;20203;-78
2023/02/17 07:59:15;;;;;;;43.37;19.50;;;10.00;99.90;;;;;;4915595;29;20234;-77
2023/02/17 08:01:41;;;;;;;47.37;21.07;;;10.00;99.90;;;;;;4915149;29;20222;-77
2023/02/17 08:04:08;;;;;;;46.83;18.57;;;10.00;99.90;;;;;;4914617;29;20213;-78
2023/02/17 08:06:37;;;;;;;45.20;18.47;;;10.00;99.90;;;;;;4914456;29;20333;-77
2023/02/17 08:14:36;;;;;;;44.07;15.77;;;10.10;99.90;;;;;;4915404;29;20598;-77
2023/02/17 08:17:02;;;;;;;42.30;16.77;;;10.00;99.90;;;;;;4914945;29;20214;-77
2023/02/17 08:19:29;;;;;;;55.10;20.77;;;10.10;99.90;;;;;;4914646;29;20266;-77
2023/02/17 08:21:56;;;;;;;46.90;18.33;;;10.10;99.90;;;;;;4913821;29;20231;-77
2023/02/17 08:24:24;;;;;;;46.87;17.43;;;10.10;99.90;;;;;;4913204;29;20678;-77
2023/02/17 08:26:53;;;;;;;39.43;15.83;;;10.10;99.90;;;;;;4913548;29;20480;-77
2023/02/17 08:29:20;;;;;;;43.87;15.40;;;10.10;99.90;;;;;;4865748;29;20209;-76
2023/02/17 08:31:51;;;;;;;40.60;18.00;;;10.10;99.90;;;;;;4932944;29;20213;-76
2023/02/17 08:34:18;;;;;;;43.57;17.37;;;10.20;99.90;;;;;;4935500;29;20603;-76
2023/02/17 08:36:45;;;;;;;43.50;17.70;;;10.20;99.90;;;;;;4937445;29;20582;-77
2023/02/17 08:39:15;;;;;;;37.83;15.40;;;10.30;99.90;;;;;;4932411;29;20804;-75
2023/02/17 08:41:43;;;;;;;47.30;18.47;;;10.30;99.90;;;;;;4937503;29;20216;-76
2023/02/17 08:44:13;;;;;;;43.57;17.00;;;10.30;99.90;;;;;;4932187;29;20206;-76
2023/02/17 08:46:40;;;;;;;40.47;16.27;;;10.30;99.90;;;;;;4936719;29;20214;-77
2023/02/17 08:49:07;;;;;;;38.50;15.80;;;10.30;99.90;;;;;;4937867;29;20214;-75
2023/02/17 08:51:35;;;;;;;49.00;16.70;;;10.40;99.90;;;;;;4928624;29;20618;-76
2023/02/17 08:54:05;;;;;;;49.63;18.60;;;10.40;99.90;;;;;;4918958;29;20229;-74
2023/02/17 08:56:32;;;;;;;47.10;18.33;;;10.40;99.90;;;;;;4918620;29;20581;-77
2023/02/17 08:58:59;;;;;;;41.47;15.93;;;10.40;99.90;;;;;;4917961;29;20298;-76
2023/02/17 09:01:28;;;;;;;43.40;16.20;;;10.40;99.90;;;;;;4918499;29;20210;-74
2023/02/17 09:03:56;;;;;;;38.47;13.73;;;10.40;99.90;;;;;;4918956;29;20253;-79
2023/02/17 09:06:23;;;;;;;32.53;13.87;;;10.40;99.90;;;;;;4917706;29;20274;-76
2023/02/17 09:08:50;;;;;;;44.00;15.13;;;10.40;99.90;;;;;;4918252;29;20454;-76
2023/02/17 09:11:19;;;;;;;36.17;13.73;;;10.40;99.90;;;;;;4918057;29;20310;-77
2023/02/17 09:13:46;;;;;;;35.83;13.70;;;10.40;99.90;;;;;;4917441;29;20226;-76
2023/02/17 09:16:13;;;;;;;32.50;11.50;;;10.40;99.90;;;;;;4918179;29;20194;-75
2023/02/17 09:18:41;;;;;;;36.43;13.70;;;10.40;99.90;;;;;;4918665;29;20196;-76
2023/02/17 09:21:10;;;;;;;43.07;13.90;;;10.40;99.90;;;;;;4917712;29;20210;-75
2023/02/17 09:23:37;;;;;;;31.90;13.37;;;10.40;99.90;;;;;;4918305;29;20221;-76
2023/02/17 09:26:06;;;;;;;38.33;15.03;;;10.40;99.90;;;;;;4917590;29;20330;-76
2023/02/17 09:28:34;;;;;;;39.07;14.50;;;10.40;99.90;;;;;;4917295;29;20578;-76
2023/02/17 09:31:09;;;;;;;37.30;14.60;;;10.40;99.90;;;;;;4918501;29;20599;-76
2023/02/17 09:33:36;;;;;;;41.67;14.77;;;10.40;99.90;;;;;;4917343;29;20719;-76
2023/02/17 09:36:05;;;;;;;40.07;13.80;;;10.40;99.90;;;;;;4919274;29;20229;-76
2023/02/17 09:38:32;;;;;;;34.50;12.27;;;10.40;99.90;;;;;;4917684;29;20224;-76
2023/02/17 09:41:03;;;;;;;36.40;12.97;;;10.50;99.90;;;;;;4921962;29;20893;-76
2023/02/17 09:43:32;;;;;;;35.27;13.57;;;10.40;99.90;;;;;;4917620;29;20561;-77
2023/02/17 09:46:05;;;;;;;33.63;12.43;;;10.40;99.90;;;;;;4923293;29;20210;-76
2023/02/17 09:48:33;;;;;;;30.90;12.20;;;10.40;99.90;;;;;;4923902;29;20199;-75
2023/02/17 09:51:03;;;;;;;33.80;13.50;;;10.40;99.90;;;;;;4922823;29;20206;-75
2023/02/17 09:53:38;;;;;;;33.90;12.63;;;10.50;99.90;;;;;;4920740;29;20217;-76
2023/02/17 09:56:09;;;;;;;27.70;13.07;;;10.50;99.90;;;;;;4915624;29;20661;-76
2023/02/17 09:58:41;;;;;;;35.23;12.37;;;10.50;99.90;;;;;;4917681;29;20211;-74
2023/02/17 10:01:11;;;;;;;32.70;11.07;;;10.50;99.90;;;;;;4927961;28;20241;-76
2023/02/17 10:03:43;;;;;;;32.33;13.40;;;10.60;99.90;;;;;;4915436;29;20334;-76
2023/02/17 10:06:15;;;;;;;34.67;12.40;;;10.60;99.90;;;;;;4916615;29;20252;-75
2023/02/17 10:08:51;;;;;;;38.50;12.17;;;10.60;99.90;;;;;;4917085;29;20241;-75
2023/02/17 10:11:26;;;;;;;36.60;13.10;;;10.60;99.90;;;;;;4922660;29;20233;-77
2023/02/17 10:13:55;;;;;;;37.40;12.20;;;10.70;99.90;;;;;;4920333;29;20397;-76
2023/02/17 10:16:30;;;;;;;27.40;10.60;;;10.70;99.90;;;;;;4932111;29;20301;-76
2023/02/17 10:19:01;;;;;;;39.33;13.17;;;10.70;99.90;;;;;;4935670;29;20296;-77
2023/02/17 10:21:32;;;;;;;35.93;12.60;;;10.70;99.90;;;;;;4935885;29;20225;-76
2023/02/17 10:24:00;;;;;;;28.97;11.87;;;10.70;99.90;;;;;;4928386;29;20210;-76
2023/02/17 10:26:45;;;;;;;34.20;12.60;;;10.70;99.90;;;;;;4916798;29;20543;-76
2023/02/17 10:29:20;;;;;;;38.47;13.47;;;10.70;99.90;;;;;;4916891;29;20293;-78
2023/02/17 10:31:52;;;;;;;37.63;11.17;;;10.70;99.90;;;;;;4915871;29;20234;-78
2023/02/17 10:34:30;;;;;;;35.97;12.60;;;10.70;99.90;;;;;;4916797;29;20202;-76
2023/02/17 10:37:00;;;;;;;39.40;12.33;;;10.70;99.90;;;;;;4915482;29;20307;-78
2023/02/17 10:39:42;;;;;;;33.57;11.80;;;10.70;99.90;;;;;;4916849;29;20202;-78
2023/02/17 10:42:17;;;;;;;39.37;13.37;;;10.70;99.90;;;;;;4916891;29;20233;-78
2023/02/17 10:44:44;;;;;;;27.73;10.93;;;10.70;99.90;;;;;;4915789;29;20547;-77
2023/02/17 10:47:12;;;;;;;35.27;11.83;;;10.70;99.90;;;;;;4916366;29;20754;-77
2023/02/17 10:49:45;;;;;;;31.90;11.23;;;10.70;99.90;;;;;;4935218;29;20875;-77
2023/02/17 10:52:14;;;;;;;24.97;10.10;;;10.70;99.90;;;;;;4920975;29;20206;-75
2023/02/17 10:54:48;;;;;;;40.07;12.37;;;10.80;99.90;;;;;;4914860;29;20210;-76
2023/02/17 10:57:19;;;;;;;27.40;10.00;;;10.80;99.90;;;;;;4916042;29;20503;-77
2023/02/17 10:59:47;;;;;;;41.40;12.00;;;10.70;99.90;;;;;;4915517;29;20243;-74
2023/02/17 11:02:19;;;;;;;31.90;10.23;;;10.80;99.90;;;;;;4916033;29;20807;-75
2023/02/17 11:04:48;;;;;;;33.53;10.60;;;10.80;99.90;;;;;;4915834;29;20213;-74
2023/02/17 11:07:18;;;;;;;37.37;9.40;;;10.80;99.90;;;;;;4916080;29;20243;-77
2023/02/17 11:09:51;;;;;;;30.93;9.57;;;10.80;99.90;;;;;;4916414;29;20277;-76
2023/02/17 11:12:35;;;;;;;32.10;9.60;;;10.80;99.90;;;;;;4919857;29;20218;-78
2023/02/17 11:15:05;;;;;;;39.83;12.70;;;10.90;99.90;;;;;;4922444;29;20217;-76
2023/02/17 11:17:38;;;;;;;31.10;9.90;;;10.90;99.90;;;;;;4915905;29;20487;-76
2023/02/17 11:20:07;;;;;;;29.87;8.43;;;10.90;99.90;;;;;;4933587;29;20204;-76
2023/02/17 11:22:37;;;;;;;34.60;9.87;;;10.90;99.90;;;;;;4918318;29;20293;-75
2023/02/17 11:25:21;;;;;;;25.80;8.50;;;10.90;99.90;;;;;;4929613;29;20209;-76
2023/02/17 11:27:51;;;;;;;33.27;9.90;;;10.90;99.90;;;;;;4914559;29;20202;-76
2023/02/17 11:30:19;;;;;;;35.23;11.50;;;10.90;99.90;;;;;;4929274;29;20497;-77
2023/02/17 11:32:46;;;;;;;30.80;11.30;;;10.80;99.90;;;;;;4915945;29;20207;-75
2023/02/17 11:35:24;;;;;;;40.87;10.33;;;10.80;99.90;;;;;;4914482;29;20696;-77
2023/02/17 11:37:51;;;;;;;27.73;10.10;;;10.80;99.90;;;;;;4922405;29;20209;-76
2023/02/17 11:40:26;;;;;;;38.53;10.30;;;10.80;99.90;;;;;;4927901;29;20202;-76
2023/02/17 11:42:57;;;;;;;31.60;9.33;;;10.70;99.90;;;;;;4928593;29;20225;-76
2023/02/17 11:45:27;;;;;;;35.10;10.57;;;10.70;99.90;;;;;;4915049;29;20591;-76
2023/02/17 11:48:08;;;;;;;30.43;10.53;;;10.70;99.90;;;;;;4921677;29;20205;-76
2023/02/17 11:50:44;;;;;;;25.60;8.80;;;10.80;99.90;;;;;;4937559;29;20205;-76
2023/02/17 11:53:36;;;;;;;26.47;8.53;;;10.80;99.90;;;;;;4915497;29;20202;-76
2023/02/17 11:56:13;;;;;;;31.47;8.67;;;10.90;99.90;;;;;;4922269;29;20289;-75
2023/02/17 11:59:02;;;;;;;34.90;9.87;;;10.90;99.90;;;;;;4915320;29;20195;-76
2023/02/17 12:01:45;;;;;;;26.53;8.53;;;11.00;99.90;;;;;;4905512;29;20242;-77
2023/02/17 12:04:31;;;;;;;30.77;9.27;;;11.00;99.90;;;;;;4922499;29;20310;-75
2023/02/17 12:07:27;;;;;;;33.67;9.17;;;10.90;99.90;;;;;;4933666;29;20245;-75
2023/02/17 12:10:01;;;;;;;28.30;7.50;;;11.00;99.90;;;;;;4932342;29;20206;-76
2023/02/17 12:12:41;;;;;;;28.20;7.60;;;11.00;99.90;;;;;;4919493;29;20214;-72
2023/02/17 12:15:23;;;;;;;33.37;8.73;;;11.00;99.90;;;;;;4918778;29;20191;-75
2023/02/17 12:18:01;;;;;;;36.90;8.70;;;11.10;99.90;;;;;;4919282;29;20497;-76
2023/02/17 12:20:49;;;;;;;31.30;8.67;;;11.10;99.90;;;;;;4919841;29;20198;-75
2023/02/17 12:23:34;;;;;;;29.40;6.87;;;11.10;99.90;;;;;;4918376;29;20305;-77
2023/02/17 12:26:11;;;;;;;36.70;8.33;;;11.10;99.90;;;;;;4918665;29;20675;-77
2023/02/17 12:29:05;;;;;;;31.97;8.10;;;11.20;99.90;;;;;;4919122;29;20639;-77
2023/02/17 12:32:07;;;;;;;25.67;7.27;;;11.20;99.90;;;;;;4918567;29;20202;-77
2023/02/17 12:34:39;;;;;;;32.40;8.23;;;11.30;99.90;;;;;;4918875;29;20596;-75
2023/02/17 12:37:14;;;;;;;33.07;8.80;;;11.30;99.90;;;;;;4918401;29;20205;-77
2023/02/17 12:39:46;;;;;;;28.53;7.27;;;11.40;99.90;;;;;;4918726;29;20392;-75
2023/02/17 12:42:18;;;;;;;32.07;6.80;;;11.40;99.90;;;;;;4919029;29;20344;-76
2023/02/17 12:44:50;;;;;;;34.00;7.20;;;11.50;99.90;;;;;;4917716;29;20232;-77
2023/02/17 12:47:23;;;;;;;25.17;6.70;;;11.50;99.90;;;;;;4918932;29;20229;-76
2023/02/17 12:49:55;;;;;;;27.80;6.43;;;11.50;99.90;;;;;;4918893;29;20199;-77
2023/02/17 12:52:26;;;;;;;26.90;6.90;;;11.60;99.90;;;;;;4917991;29;20206;-77
2023/02/17 12:54:56;;;;;;;33.47;6.37;;;11.60;99.90;;;;;;4918991;29;20294;-77